Weather observations for the past three days for
Wichita Jabara Airport
Imperial (Metric)
Date Time (cdt) Wind (mph) Vis. (mi.) Weather Sky Cond. Temperature (ºF) Relative Humidity Wind Chill (°F) Heat Index (°F) Pressure Precipitation (in)
Air Dwpt 6 hour altimeter (in) sea level (mb) 1 hr 3 hr 6 hr
Max. Min.
02 00:54 S 8 10.00 Fair CLR 82 61 95 82 49% 83 29.96 1012.8
01 23:54 S 10 10.00 Fair CLR 84 60.1 44% 84 29.96 1012.8
01 22:54 S 8 10.00 Fair CLR 82.9 57.9 43% 83 29.96 1012.8
01 21:54 S 7 10.00 Fair CLR 84 57 40% 83 29.95 1012.6
01 20:54 S 8 10.00 Fair CLR 88 57 35% 87 29.93 1011.8
01 19:54 S 12 10.00 Fair CLR 91.9 55.9 30% 90 29.92 1011.5
01 18:54 S 13 10.00 Fair CLR 95 55.9 100.9 95 27% 93 29.93 1011.6
01 17:54 S 15 G 23 10.00 Fair CLR 98.1 55 24% 96 29.93 1011.7
01 16:54 S 13 G 24 10.00 Fair CLR 100 55 22% 98 29.93 1011.8
01 15:54 SW 20 G 26 10.00 A Few Clouds FEW095 100 55.9 23% 99 29.95 1012.4
01 14:54 S 18 G 26 10.00 Partly Cloudy SCT095 99 57 25% 98 29.97 1013.1
01 13:54 S 20 G 26 10.00 Partly Cloudy SCT090 100 57.9 25% 100 29.99 1013.6
01 12:54 SW 16 G 23 10.00 A Few Clouds FEW085 98.1 59 98.1 75.9 27% 98 30.01 1014.4
01 11:54 SW 16 G 26 10.00 Fair CLR 96.1 61 31% 97 30.03 1014.9
01 10:54 S 20 G 26 10.00 Fair CLR 93 61 34% 93 30.03 1014.9
01 09:54 SW 16 G 23 10.00 Fair CLR 89.1 60.1 38% 89 30.03 1015.1
01 08:54 S 13 10.00 Mostly Cloudy BKN100 84.9 59 42% 85 30.04 1015.5
01 07:54 S 9 10.00 Mostly Cloudy BKN100 80.1 57.9 47% 81 30.04 1015.3
01 06:54 S 9 10.00 Fair CLR 75.9 57.9 82 75.9 54% 78 30.02 1014.8
01 05:54 S 9 10.00 Fair CLR 78.1 57 48% 79 30.01 1014.5
01 04:54 S 10 10.00 Fair CLR 80.1 57 45% 80 30 1014.0
01 03:54 S 12 10.00 Fair CLR 82 57 43% 82 29.99 1013.6
01 02:54 S 7 10.00 Fair CLR 79 57.9 49% 80 29.98 1013.4
01 01:54 S 9 10.00 Fair CLR 81 57.9 45% 81 29.99 1013.5
01 00:54 S 8 10.00 Fair CLR 81 59 97 81 47% 81 29.99 1013.7
31 23:54 S 8 10.00 Fair CLR 82.9 59 44% 83 29.98 1013.5
31 22:54 S 8 10.00 Fair CLR 84.9 59 42% 85 29.98 1013.2
31 21:54 S 9 10.00 Fair CLR 88 59 38% 87 29.96 1012.6
31 20:54 SE 8 10.00 Fair CLR 89.1 59 36% 88 29.93 1011.7
31 19:54 SE 7 10.00 Fair CLR 93 57 30% 92 29.92 1011.3
31 18:54 S 12 10.00 Fair CLR 97 55.9 102.9 97 25% 95 29.92 1011.2
31 17:54 S 9 10.00 Fair CLR 99 55.9 24% 98 29.92 1011.2
31 16:54 S 15 G 22 10.00 Fair CLR 100.9 54 21% 99 29.92 1011.3
31 15:54 S 14 G 22 10.00 Fair CLR 102 57 23% 101 29.94 1011.8
31 14:54 S 10 G 29 10.00 Fair CLR 102 59 24% 102 29.95 1012.1
31 13:54 S 16 10.00 Fair CLR 100.9 60.1 26% 102 29.96 1012.6
31 12:54 SW 20 G 25 10.00 Fair CLR 98.1 62.1 98.1 77 31% 99 29.98 1013.3
31 11:54 S 15 10.00 Fair CLR 96.1 62.1 32% 97 30 1013.8
31 10:54 S 10 10.00 Fair CLR 91.9 62.1 37% 93 30 1014.1
31 09:54 S 12 10.00 Fair CLR 88 61 40% 88 30.01 1014.2
31 08:54 S 13 10.00 Fair CLR 84.9 60.1 43% 85 30.01 1014.3
31 07:54 S 9 10.00 Fair CLR 79 59 50% 80 29.99 1013.8
31 06:54 S 8 10.00 Fair CLR 77 59 84.9 75.9 54% 79 29.98 1013.6
31 05:54 SW 9 10.00 Fair CLR 79 59 50% 80 29.97 1013.0
31 04:54 S 12 10.00 Fair CLR 81 59 47% 81 29.95 1012.2
31 03:54 S 13 10.00 Fair CLR 82 60.1 47% 82 29.94 1011.8
31 02:54 S 13 10.00 Fair CLR 84 59 43% 84 29.93 1011.3
31 01:54 S 14 10.00 Fair CLR 84 60.1 44% 84 29.94 1011.7
31 00:54 S 12 G 22 10.00 Fair CLR 84.9 59 99 84.9 42% 85 29.92 1011.1
30 23:54 S 14 G 23 10.00 Fair CLR 86 59 40% 85 29.89 1010.2
30 22:54 S 13 10.00 Fair CLR 87.1 59 39% 86 29.89 1010.2
30 21:54 S 12 10.00 Fair CLR 90 59 35% 89 29.89 1010.2
30 20:54 S 10 10.00 Fair CLR 91.9 59 33% 91 29.86 1009.5
30 19:54 S 15 10.00 Fair CLR 95 59 30% 94 29.84 1008.8
30 18:54 S 18 G 26 10.00 Fair CLR 99 61 105.1 99 29% 100 29.84 1008.8
30 17:54 S 17 G 30 10.00 Fair CLR 102 61 26% 103 29.83 1008.3
30 16:54 S 23 G 32 10.00 Fair and Breezy CLR 102.9 61 25% 104 29.83 1008.1
30 15:54 S 23 G 33 10.00 Fair and Breezy CLR 104 61 24% 106 29.84 1008.5
30 14:54 S 23 G 30 10.00 Fair and Breezy CLR 105.1 62.1 25% 107 29.86 1009.2
30 13:54 S 21 G 35 10.00 Fair and Breezy CLR 102 63 28% 104 29.87 1009.6
30 12:54 S 18 G 32 10.00 Fair CLR 99 64 99 77 32% 102 29.89 1010.3
30 11:54 S 22 G 35 10.00 Fair and Breezy CLR 95 64 36% 97 29.92 1011.3
30 10:54 S 20 G 33 10.00 Fair CLR 91.9 63 38% 93 29.92 1011.3
30 09:54 S 15 G 29 10.00 Fair CLR 88 62.1 42% 88 29.93 1011.7
30 08:54 S 17 G 26 10.00 Fair CLR 82.9 61 48% 83 29.94 1012.0
30 07:54 S 13 10.00 Fair CLR 79 60.1 52% 80 29.94 1012.1
30 06:54 S 13 10.00 Fair CLR 77 60.1 82.9 77 56% 79 29.93 1011.7
30 05:54 S 10 10.00 Fair CLR 77 60.1 56% 79 29.93 1011.7
30 04:54 S 9 10.00 Fair CLR 78.1 60.1 54% 79 29.93 1011.7
30 03:54 S 9 10.00 Fair CLR 80.1 60.1 51% 81 29.92 1011.3
30 02:54 S 12 10.00 Fair CLR 82 59 46% 82 29.92 1011.1
30 01:54 S 13 10.00 Fair CLR 82 60.1 47% 82 29.92 1011.3
Date Time (cdt) Wind (mph) Vis. (mi.) Weather Sky Cond. Air Dwpt Max. Min. Relative Humidity Wind Chill (°F) Heat Index (°F) altimeter (in) sea level (mb) 1 hr 3 hr 6 hr
6 hour
Temperature (ºF) Pressure Precipitation (in)